createdAt,value
2022-11-12T00:00:23.075Z,972.84
2022-11-12T00:01:25.056Z,972.82
2022-11-12T00:02:28.122Z,972.82
2022-11-12T00:03:30.076Z,972.82
2022-11-12T00:04:32.077Z,972.81
2022-11-12T00:05:35.094Z,972.81
2022-11-12T00:06:38.145Z,972.83
2022-11-12T00:07:40.071Z,972.8
2022-11-12T00:08:42.088Z,972.8
2022-11-12T00:09:44.071Z,972.79
2022-11-12T00:10:46.065Z,972.75
2022-11-12T00:11:48.067Z,972.73
2022-11-12T00:12:50.071Z,972.66
2022-11-12T00:13:52.089Z,972.7
2022-11-12T00:14:54.121Z,972.67
2022-11-12T00:15:57.071Z,972.63
2022-11-12T00:17:00.069Z,972.62
2022-11-12T00:18:02.072Z,972.61
2022-11-12T00:19:04.086Z,972.61
2022-11-12T00:20:06.081Z,972.65
2022-11-12T00:21:08.076Z,972.62
2022-11-12T00:22:10.084Z,972.63
2022-11-12T00:23:12.086Z,972.63
2022-11-12T00:24:14.091Z,972.63
2022-11-12T00:25:16.094Z,972.64
2022-11-12T00:26:18.073Z,972.64
2022-11-12T00:27:21.083Z,972.67
2022-11-12T00:28:23.300Z,972.67
2022-11-12T00:29:25.097Z,972.67
2022-11-12T00:30:27.085Z,972.66
2022-11-12T00:31:29.091Z,972.64
2022-11-12T00:32:31.086Z,972.63
2022-11-12T00:33:33.097Z,972.62
2022-11-12T00:34:35.097Z,972.62
2022-11-12T00:35:39.104Z,972.65
2022-11-12T00:36:41.103Z,972.62
2022-11-12T00:37:43.083Z,972.59
2022-11-12T00:38:45.092Z,972.6
2022-11-12T00:39:47.108Z,972.57
2022-11-12T00:40:49.093Z,972.57
2022-11-12T00:41:51.093Z,972.57
2022-11-12T00:42:53.099Z,972.56
2022-11-12T00:43:56.109Z,972.58
2022-11-12T00:44:58.103Z,972.57
2022-11-12T00:46:00.107Z,972.56
2022-11-12T00:47:02.096Z,972.6
2022-11-12T00:48:04.104Z,972.55
2022-11-12T00:49:06.106Z,972.57
2022-11-12T00:50:08.104Z,972.56
2022-11-12T00:51:10.112Z,972.57
2022-11-12T00:52:12.174Z,972.57
2022-11-12T00:53:14.098Z,972.53
2022-11-12T00:54:16.143Z,972.56
2022-11-12T00:55:19.120Z,972.54
2022-11-12T00:56:21.098Z,972.54
2022-11-12T00:57:23.105Z,972.56
2022-11-12T00:58:25.362Z,972.58
2022-11-12T00:59:28.147Z,972.59
2022-11-12T01:00:30.497Z,972.59
2022-11-12T01:01:32.978Z,972.63
2022-11-12T01:02:42.261Z,972.61
2022-11-12T01:03:38.890Z,972.66
2022-11-12T01:04:40.215Z,972.63
2022-11-12T01:05:42.349Z,972.67
2022-11-12T01:06:44.186Z,972.65
2022-11-12T01:07:46.113Z,972.68
2022-11-12T01:08:48.110Z,972.68
2022-11-12T01:09:50.112Z,972.67
2022-11-12T01:10:52.126Z,972.65
2022-11-12T01:11:55.112Z,972.69
2022-11-12T01:12:57.113Z,972.72
2022-11-12T01:13:59.129Z,972.73
2022-11-12T01:15:01.140Z,972.75
2022-11-12T01:16:03.120Z,972.74
2022-11-12T01:17:05.113Z,972.75
2022-11-12T01:18:07.119Z,972.73
2022-11-12T01:19:09.113Z,972.72
2022-11-12T01:20:11.147Z,972.75
2022-11-12T01:21:13.138Z,972.76
2022-11-12T01:22:15.136Z,972.76
2022-11-12T01:23:17.122Z,972.71
2022-11-12T01:24:19.120Z,972.75
2022-11-12T01:25:22.120Z,972.73
2022-11-12T01:26:24.133Z,972.74
2022-11-12T01:27:26.134Z,972.75
2022-11-12T01:28:29.336Z,972.73
2022-11-12T01:29:31.122Z,972.75
2022-11-12T01:30:33.126Z,972.73
2022-11-12T01:31:35.163Z,972.73
2022-11-12T01:32:39.169Z,972.74
2022-11-12T01:33:41.176Z,972.73
2022-11-12T01:34:43.132Z,972.73
2022-11-12T01:35:45.143Z,972.74
2022-11-12T01:36:47.141Z,972.75
2022-11-12T01:37:49.132Z,972.73
2022-11-12T01:38:51.153Z,972.72
2022-11-12T01:39:53.131Z,972.7
2022-11-12T01:40:55.141Z,972.73
2022-11-12T01:41:57.138Z,972.72
2022-11-12T01:42:59.136Z,972.73
2022-11-12T01:44:01.138Z,972.72
2022-11-12T01:45:03.140Z,972.73
2022-11-12T01:46:05.132Z,972.72
2022-11-12T01:47:07.139Z,972.74
2022-11-12T01:48:09.178Z,972.76
2022-11-12T01:49:11.138Z,972.74
2022-11-12T01:50:14.145Z,972.72
2022-11-12T01:51:16.139Z,972.71
2022-11-12T01:52:18.191Z,972.71
2022-11-12T01:53:20.152Z,972.72
2022-11-12T01:54:22.139Z,972.69
2022-11-12T01:55:24.222Z,972.7
2022-11-12T01:56:26.136Z,972.7
2022-11-12T01:57:33.457Z,972.71
2022-11-12T01:58:31.145Z,972.74
2022-11-12T01:59:33.148Z,972.74
2022-11-12T02:00:35.196Z,972.76
2022-11-12T02:01:38.297Z,972.73
2022-11-12T02:02:40.139Z,972.69
2022-11-12T02:03:42.143Z,972.72
2022-11-12T02:04:44.150Z,972.69
2022-11-12T02:05:46.182Z,972.69
2022-11-12T02:06:48.167Z,972.67
2022-11-12T02:07:50.145Z,972.67
2022-11-12T02:08:52.154Z,972.66
2022-11-12T02:09:54.147Z,972.65
2022-11-12T02:10:56.201Z,972.64
2022-11-12T02:11:58.147Z,972.63
2022-11-12T02:13:00.150Z,972.61
2022-11-12T02:14:02.157Z,972.62
2022-11-12T02:15:04.153Z,972.58
2022-11-12T02:16:06.160Z,972.56
2022-11-12T02:17:08.149Z,972.53
2022-11-12T02:18:10.155Z,972.51
2022-11-12T02:19:12.150Z,972.5
2022-11-12T02:20:14.191Z,972.48
2022-11-12T02:21:16.152Z,972.46
2022-11-12T02:22:18.162Z,972.45
2022-11-12T02:23:20.151Z,972.41
2022-11-12T02:24:22.169Z,972.45
2022-11-12T02:25:24.352Z,972.41
2022-11-12T02:26:26.167Z,972.38
2022-11-12T02:27:28.150Z,972.36
2022-11-12T02:28:30.162Z,972.35
2022-11-12T02:29:32.161Z,972.33
2022-11-12T02:30:35.210Z,972.34
2022-11-12T02:31:39.155Z,972.33
2022-11-12T02:32:41.165Z,972.29
2022-11-12T02:33:43.172Z,972.31
2022-11-12T02:34:45.166Z,972.28
2022-11-12T02:35:47.202Z,972.27
2022-11-12T02:36:49.180Z,972.3
2022-11-12T02:37:51.168Z,972.3
2022-11-12T02:38:53.165Z,972.3
2022-11-12T02:39:55.167Z,972.32
2022-11-12T02:40:57.192Z,972.34
2022-11-12T02:41:59.169Z,972.28
2022-11-12T02:43:01.175Z,972.27
2022-11-12T02:44:03.176Z,972.28
2022-11-12T02:45:05.202Z,972.26
2022-11-12T02:46:07.164Z,972.27
2022-11-12T02:47:09.170Z,972.25
2022-11-12T02:48:15.143Z,972.22
2022-11-12T02:49:13.171Z,972.19
2022-11-12T02:51:17.210Z,972.22
2022-11-12T02:52:19.173Z,972.2
2022-11-12T02:53:22.173Z,972.19
2022-11-12T02:54:24.174Z,972.18
2022-11-12T02:55:26.214Z,972.17
2022-11-12T02:56:29.172Z,972.18
2022-11-12T02:57:31.186Z,972.17
2022-11-12T02:58:33.183Z,972.18
2022-11-12T02:59:35.194Z,972.17
2022-11-12T03:00:37.191Z,972.19
2022-11-12T03:01:39.232Z,972.19
2022-11-12T03:02:41.181Z,972.22
2022-11-12T03:03:43.180Z,972.18
2022-11-12T03:04:49.239Z,972.2
2022-11-12T03:05:47.246Z,972.21
2022-11-12T03:06:49.264Z,972.21
2022-11-12T03:07:52.337Z,972.22
2022-11-12T03:08:53.189Z,972.26
2022-11-12T03:09:55.197Z,972.22
2022-11-12T03:10:57.185Z,972.25
2022-11-12T03:11:59.194Z,972.25
2022-11-12T03:13:01.235Z,972.28
2022-11-12T03:14:03.194Z,972.27
2022-11-12T03:15:05.195Z,972.28
2022-11-12T03:16:07.191Z,972.28
2022-11-12T03:17:09.194Z,972.29
2022-11-12T03:18:11.228Z,972.3
2022-11-12T03:19:13.193Z,972.3
2022-11-12T03:20:15.198Z,972.27
2022-11-12T03:21:17.197Z,972.26
2022-11-12T03:22:19.193Z,972.26
2022-11-12T03:23:21.203Z,972.25
2022-11-12T03:24:23.201Z,972.27
2022-11-12T03:25:26.188Z,972.26
2022-11-12T03:26:33.024Z,972.28
2022-11-12T03:27:30.205Z,972.31
2022-11-12T03:28:32.222Z,972.33
2022-11-12T03:29:35.214Z,972.33
2022-11-12T03:30:39.211Z,972.31
2022-11-12T03:31:41.207Z,972.33
2022-11-12T03:32:43.198Z,972.34
2022-11-12T03:33:45.233Z,972.33
2022-11-12T03:34:48.836Z,972.32
2022-11-12T03:35:49.194Z,972.33
2022-11-12T03:36:51.203Z,972.32
2022-11-12T03:37:53.203Z,972.35
2022-11-12T03:38:55.395Z,972.33
2022-11-12T03:39:57.213Z,972.33
2022-11-12T03:40:59.217Z,972.35
2022-11-12T03:42:01.203Z,972.33
2022-11-12T03:43:03.213Z,972.36
2022-11-12T03:44:05.252Z,972.34
2022-11-12T03:45:08.208Z,972.31
2022-11-12T03:46:10.222Z,972.32
2022-11-12T03:47:12.215Z,972.33
2022-11-12T03:48:14.214Z,972.33
2022-11-12T03:49:16.210Z,972.3
2022-11-12T03:50:19.216Z,972.29
2022-11-12T03:51:21.239Z,972.28
2022-11-12T03:52:23.210Z,972.3
2022-11-12T03:53:25.218Z,972.28
2022-11-12T03:54:28.214Z,972.32
2022-11-12T03:55:30.225Z,972.29
2022-11-12T03:56:32.206Z,972.28
2022-11-12T03:57:35.236Z,972.28
2022-11-12T03:58:38.217Z,972.28
2022-11-12T03:59:40.215Z,972.3
2022-11-12T04:00:42.227Z,972.28
2022-11-12T04:01:44.223Z,972.29
2022-11-12T04:02:46.219Z,972.27
2022-11-12T04:03:48.226Z,972.28
2022-11-12T04:04:50.220Z,972.28
2022-11-12T04:05:52.234Z,972.29
2022-11-12T04:06:54.280Z,972.27
2022-11-12T04:08:58.221Z,972.32
2022-11-12T04:10:00.232Z,972.3
2022-11-12T04:11:02.242Z,972.32
2022-11-12T04:12:04.242Z,972.32
2022-11-12T04:13:06.223Z,972.31
2022-11-12T04:14:08.224Z,972.34
2022-11-12T04:15:10.232Z,972.31
2022-11-12T04:16:13.226Z,972.34
2022-11-12T04:17:15.259Z,972.33
2022-11-12T04:18:17.227Z,972.32
2022-11-12T04:19:19.228Z,972.36
2022-11-12T04:20:21.226Z,972.36
2022-11-12T04:21:23.235Z,972.37
2022-11-12T04:22:26.311Z,972.36
2022-11-12T04:23:28.242Z,972.37
2022-11-12T04:24:30.237Z,972.38
2022-11-12T04:25:32.234Z,972.38
2022-11-12T04:26:35.282Z,972.41
2022-11-12T04:27:38.284Z,972.41
2022-11-12T04:28:40.238Z,972.44
2022-11-12T04:29:42.240Z,972.43
2022-11-12T04:30:44.241Z,972.39
2022-11-12T04:31:46.244Z,972.41
2022-11-12T04:32:48.954Z,972.39
2022-11-12T04:33:50.959Z,972.39
2022-11-12T04:34:53.016Z,972.4
2022-11-12T04:35:54.980Z,972.4
2022-11-12T04:36:56.924Z,972.42
2022-11-12T04:37:58.952Z,972.44
2022-11-12T04:39:00.950Z,972.4
2022-11-12T04:40:02.930Z,972.39
2022-11-12T04:41:04.922Z,972.4
2022-11-12T04:42:06.931Z,972.4
2022-11-12T04:43:08.941Z,972.35
2022-11-12T04:44:10.930Z,972.36
2022-11-12T04:45:12.939Z,972.39
2022-11-12T04:46:14.924Z,972.36
2022-11-12T04:47:16.930Z,972.34
2022-11-12T04:48:18.928Z,972.32
2022-11-12T04:49:20.939Z,972.32
2022-11-12T04:50:22.931Z,972.33
2022-11-12T04:51:24.935Z,972.33
2022-11-12T04:52:27.934Z,972.32
2022-11-12T04:53:29.975Z,972.3
2022-11-12T04:54:32.936Z,972.32
2022-11-12T04:55:34.978Z,972.33
2022-11-12T04:56:37.941Z,972.31
2022-11-12T04:57:39.939Z,972.3
2022-11-12T04:58:41.952Z,972.31
2022-11-12T04:59:43.937Z,972.31
2022-11-12T05:00:46.952Z,972.28
2022-11-12T05:01:50.024Z,972.28
2022-11-12T05:02:51.940Z,972.28
2022-11-12T05:03:53.943Z,972.26
2022-11-12T05:04:55.951Z,972.27
2022-11-12T05:05:57.942Z,972.31
2022-11-12T05:07:00.028Z,972.26
2022-11-12T05:08:02.955Z,972.26
2022-11-12T05:09:05.020Z,972.25
2022-11-12T05:10:06.958Z,972.26
2022-11-12T05:11:12.645Z,972.27
2022-11-12T05:12:10.945Z,972.28
2022-11-12T05:13:12.949Z,972.28
2022-11-12T05:14:14.950Z,972.29
2022-11-12T05:15:16.937Z,972.28
2022-11-12T05:16:18.959Z,972.26
2022-11-12T05:17:20.947Z,972.29
2022-11-12T05:18:23.181Z,972.28
2022-11-12T05:19:24.951Z,972.29
2022-11-12T05:20:26.950Z,972.28
2022-11-12T05:21:29.008Z,972.32
2022-11-12T05:22:43.261Z,972.34
2022-11-12T05:23:33.007Z,972.29
2022-11-12T05:24:42.040Z,972.31
2022-11-12T05:25:36.955Z,972.28
2022-11-12T05:26:39.110Z,972.28
2022-11-12T05:27:40.958Z,972.27
2022-11-12T05:28:43.962Z,972.25
2022-11-12T05:29:46.983Z,972.28
2022-11-12T05:30:49.986Z,972.29
2022-11-12T05:31:51.959Z,972.31
2022-11-12T05:32:53.961Z,972.3
2022-11-12T05:34:10.550Z,972.33
2022-11-12T05:35:08.443Z,972.31
2022-11-12T05:36:08.482Z,972.34
2022-11-12T05:37:08.442Z,972.36
2022-11-12T05:38:08.457Z,972.33
2022-11-12T05:39:08.474Z,972.38
2022-11-12T05:40:08.458Z,972.35
2022-11-12T05:41:12.990Z,972.33
2022-11-12T05:42:14.251Z,972.34
2022-11-12T05:43:14.974Z,972.39
2022-11-12T05:44:17.974Z,972.38
2022-11-12T05:45:19.970Z,972.37
2022-11-12T05:46:21.991Z,972.37
2022-11-12T05:47:23.979Z,972.4
2022-11-12T05:48:27.508Z,972.38
2022-11-12T05:49:29.007Z,972.38
2022-11-12T05:50:39.873Z,972.35
2022-11-12T05:51:32.977Z,972.35
2022-11-12T05:52:34.976Z,972.32
2022-11-12T05:53:36.973Z,972.36
2022-11-12T05:54:38.973Z,972.31
2022-11-12T05:55:40.982Z,972.32
2022-11-12T05:56:43.006Z,972.33
2022-11-12T05:57:44.986Z,972.35
2022-11-12T05:58:46.987Z,972.33
2022-11-12T05:59:50.987Z,972.36
2022-11-12T06:00:53.004Z,972.38
2022-11-12T06:01:55.025Z,972.38
2022-11-12T06:02:57.008Z,972.39
2022-11-12T06:03:58.980Z,972.37
2022-11-12T06:05:00.990Z,972.41
2022-11-12T06:06:02.989Z,972.41
2022-11-12T06:07:05.099Z,972.43
2022-11-12T06:08:06.992Z,972.43
2022-11-12T06:09:09.001Z,972.43
2022-11-12T06:10:13.811Z,972.44
2022-11-12T06:11:13.027Z,972.46
2022-11-12T06:12:14.985Z,972.46
2022-11-12T06:13:17.990Z,972.46
2022-11-12T06:14:19.983Z,972.45
2022-11-12T06:15:21.991Z,972.47
2022-11-12T06:16:24.033Z,972.45
2022-11-12T06:17:26.015Z,972.49
2022-11-12T06:18:28.334Z,972.47
2022-11-12T06:19:30.000Z,972.5
2022-11-12T06:20:31.991Z,972.51
2022-11-12T06:21:34.026Z,972.48
2022-11-12T06:22:35.996Z,972.47
2022-11-12T06:23:39.014Z,972.5
2022-11-12T06:24:40.990Z,972.48
2022-11-12T06:25:42.979Z,972.48
2022-11-12T06:26:44.996Z,972.52
2022-11-12T06:27:46.999Z,972.53
2022-11-12T06:28:49.045Z,972.56
2022-11-12T06:29:50.994Z,972.56
2022-11-12T06:30:53.038Z,972.59
2022-11-12T06:31:54.998Z,972.58
2022-11-12T06:32:57.025Z,972.55
2022-11-12T06:33:59.001Z,972.56
2022-11-12T06:35:02.001Z,972.6
2022-11-12T06:36:04.025Z,972.59
2022-11-12T06:37:06.005Z,972.6
2022-11-12T06:38:07.996Z,972.59
2022-11-12T06:39:09.995Z,972.61
2022-11-12T06:40:12.003Z,972.63
2022-11-12T06:41:14.038Z,972.65
2022-11-12T06:42:16.057Z,972.68
2022-11-12T06:43:18.039Z,972.67
2022-11-12T06:44:22.256Z,972.68
2022-11-12T06:45:23.003Z,972.67
2022-11-12T06:46:25.007Z,972.69
2022-11-12T06:47:27.007Z,972.67
2022-11-12T06:48:29.220Z,972.67
2022-11-12T06:49:31.010Z,972.66
2022-11-12T06:50:33.044Z,972.67
2022-11-12T06:51:35.049Z,972.67
2022-11-12T06:52:38.015Z,972.69
2022-11-12T06:53:40.011Z,972.7
2022-11-12T06:54:42.017Z,972.71
2022-11-12T06:55:44.054Z,972.7
2022-11-12T06:56:47.028Z,972.68
2022-11-12T06:57:50.014Z,972.68
2022-11-12T06:58:52.020Z,972.7
2022-11-12T06:59:54.018Z,972.73
2022-11-12T07:00:56.025Z,972.7
2022-11-12T07:01:58.098Z,972.68
2022-11-12T07:03:00.036Z,972.65
2022-11-12T07:04:02.046Z,972.67
2022-11-12T07:05:04.049Z,972.68
2022-11-12T07:06:06.034Z,972.66
2022-11-12T07:07:10.622Z,972.66
2022-11-12T07:08:10.023Z,972.64
2022-11-12T07:09:12.015Z,972.64
2022-11-12T07:10:14.199Z,972.64
2022-11-12T07:11:16.030Z,972.67
2022-11-12T07:12:18.032Z,972.61
2022-11-12T07:13:20.040Z,972.61
2022-11-12T07:14:22.028Z,972.63
2022-11-12T07:15:25.067Z,972.64
2022-11-12T07:16:27.024Z,972.67
2022-11-12T07:17:30.033Z,972.7
2022-11-12T07:18:32.038Z,972.68
2022-11-12T07:19:34.022Z,972.68
2022-11-12T07:20:36.072Z,972.68
2022-11-12T07:21:38.022Z,972.69
2022-11-12T07:22:40.033Z,972.68
2022-11-12T07:23:42.036Z,972.67
2022-11-12T07:24:44.037Z,972.68
2022-11-12T07:25:47.127Z,972.68
2022-11-12T07:26:50.034Z,972.66
2022-11-12T07:27:52.031Z,972.63
2022-11-12T07:28:54.035Z,972.63
2022-11-12T07:29:56.033Z,972.63
2022-11-12T07:30:58.090Z,972.61
2022-11-12T07:32:00.048Z,972.62
2022-11-12T07:33:02.038Z,972.62
2022-11-12T07:34:04.078Z,972.6
2022-11-12T07:35:06.040Z,972.63
2022-11-12T07:36:08.087Z,972.6
2022-11-12T07:37:10.073Z,972.59
2022-11-12T07:38:12.050Z,972.6
2022-11-12T07:39:14.035Z,972.59
2022-11-12T07:40:16.041Z,972.58
2022-11-12T07:41:18.059Z,972.55
2022-11-12T07:42:21.040Z,972.59
2022-11-12T07:43:23.052Z,972.57
2022-11-12T07:44:25.050Z,972.55
2022-11-12T07:45:27.082Z,972.52
2022-11-12T07:46:30.056Z,972.54
2022-11-12T07:47:32.042Z,972.54
2022-11-12T07:48:34.047Z,972.55
2022-11-12T07:49:36.044Z,972.56
2022-11-12T07:50:38.096Z,972.56
2022-11-12T07:51:40.066Z,972.57
2022-11-12T07:52:42.098Z,972.54
2022-11-12T07:53:44.050Z,972.58
2022-11-12T07:55:50.102Z,972.56
2022-11-12T07:56:52.049Z,972.55
2022-11-12T07:57:54.047Z,972.55
2022-11-12T07:58:56.057Z,972.57
2022-11-12T07:59:58.051Z,972.58
2022-11-12T08:01:01.072Z,972.59
2022-11-12T08:02:03.055Z,972.6
2022-11-12T08:03:05.116Z,972.56
2022-11-12T08:04:07.052Z,972.56
2022-11-12T08:05:16.357Z,972.53
2022-11-12T08:06:11.052Z,972.57
2022-11-12T08:07:13.187Z,972.55
2022-11-12T08:08:15.110Z,972.53
2022-11-12T08:09:17.058Z,972.54
2022-11-12T08:10:19.060Z,972.53
2022-11-12T08:11:21.062Z,972.5
2022-11-12T08:13:25.094Z,972.5
2022-11-12T08:14:27.093Z,972.5
2022-11-12T08:15:29.066Z,972.45
2022-11-12T08:17:33.060Z,972.49
2022-11-12T08:18:35.108Z,972.49
2022-11-12T08:19:37.115Z,972.48
2022-11-12T08:20:39.071Z,972.5
2022-11-12T08:21:41.074Z,972.48
2022-11-12T08:22:48.902Z,972.5
2022-11-12T08:23:45.113Z,972.49
2022-11-12T08:24:47.140Z,972.52
2022-11-12T08:25:50.071Z,972.48
2022-11-12T08:26:52.073Z,972.55
2022-11-12T08:27:54.083Z,972.51
2022-11-12T08:28:56.079Z,972.56
2022-11-12T08:29:58.107Z,972.6
2022-11-12T08:31:00.085Z,972.6
2022-11-12T08:32:02.118Z,972.59
2022-11-12T08:33:04.075Z,972.57
2022-11-12T08:34:06.076Z,972.6
2022-11-12T08:35:08.212Z,972.61
2022-11-12T08:36:10.087Z,972.6
2022-11-12T08:37:12.119Z,972.59
2022-11-12T08:38:14.121Z,972.58
2022-11-12T08:39:16.088Z,972.58
2022-11-12T08:40:18.124Z,972.58
2022-11-12T08:41:20.081Z,972.59
2022-11-12T08:42:22.111Z,972.57
2022-11-12T08:43:24.080Z,972.57
2022-11-12T08:44:26.084Z,972.57
2022-11-12T08:45:28.084Z,972.59
2022-11-12T08:46:31.087Z,972.56
2022-11-12T08:47:33.109Z,972.53
2022-11-12T08:48:35.083Z,972.55
2022-11-12T08:49:37.089Z,972.56
2022-11-12T08:50:39.095Z,972.54
2022-11-12T08:51:41.102Z,972.53
2022-11-12T08:52:43.089Z,972.55
2022-11-12T08:53:45.090Z,972.53
2022-11-12T08:54:51.091Z,972.49
2022-11-12T08:55:53.121Z,972.5
2022-11-12T08:56:55.090Z,972.47
2022-11-12T08:57:57.093Z,972.49
2022-11-12T08:58:59.097Z,972.46
2022-11-12T09:00:01.093Z,972.46
2022-11-12T09:01:03.130Z,972.45
2022-11-12T09:02:05.122Z,972.48
2022-11-12T09:03:07.095Z,972.46
2022-11-12T09:04:09.093Z,972.45
2022-11-12T09:05:11.107Z,972.44
2022-11-12T09:06:13.101Z,972.48
2022-11-12T09:07:43.330Z,972.47
2022-11-12T09:08:17.228Z,972.48
2022-11-12T09:09:19.106Z,972.47
2022-11-12T09:10:21.105Z,972.5
2022-11-12T09:11:23.095Z,972.49
2022-11-12T09:12:25.126Z,972.5
2022-11-12T09:13:27.204Z,972.5
2022-11-12T09:14:29.103Z,972.51
2022-11-12T09:15:37.520Z,972.48
2022-11-12T09:16:33.109Z,972.48
2022-11-12T09:17:35.138Z,972.42
2022-11-12T09:18:37.104Z,972.39
2022-11-12T09:19:42.914Z,972.38
2022-11-12T09:20:42.109Z,972.33
2022-11-12T09:21:44.136Z,972.36
2022-11-12T09:22:47.135Z,972.36
2022-11-12T09:23:50.115Z,972.31
2022-11-12T09:24:52.135Z,972.29
2022-11-12T09:26:56.114Z,972.31
2022-11-12T09:27:58.146Z,972.31
2022-11-12T09:29:00.122Z,972.34
2022-11-12T09:30:02.753Z,972.36
2022-11-12T09:31:04.120Z,972.33
2022-11-12T09:32:06.122Z,972.32
2022-11-12T09:33:08.117Z,972.31
2022-11-12T09:34:10.117Z,972.3
2022-11-12T09:35:12.167Z,972.3
2022-11-12T09:36:14.111Z,972.31
2022-11-12T09:37:16.118Z,972.28
2022-11-12T09:38:18.145Z,972.32
2022-11-12T09:39:20.127Z,972.3
2022-11-12T09:40:22.238Z,972.31
2022-11-12T09:41:24.163Z,972.28
2022-11-12T09:42:26.123Z,972.31
2022-11-12T09:43:28.148Z,972.32
2022-11-12T09:44:35.587Z,972.33
2022-11-12T09:45:32.122Z,972.33
2022-11-12T09:46:34.149Z,972.33
2022-11-12T09:47:36.135Z,972.29
2022-11-12T09:48:38.133Z,972.27
2022-11-12T09:49:40.165Z,972.26
2022-11-12T09:58:11.940Z,972.29
2022-11-12T10:01:39.009Z,972.2
2022-11-12T10:04:45.650Z,972.19
2022-11-12T10:04:46.013Z,972.18
2022-11-12T10:04:47.435Z,972.16
2022-11-12T10:06:18.180Z,972.21
2022-11-12T10:44:14.367Z,972.15
2022-11-12T10:44:14.840Z,972.12
2022-11-12T10:45:08.706Z,971.78
2022-11-12T10:46:08.656Z,971.76
2022-11-12T10:47:08.642Z,971.75
2022-11-12T10:48:08.648Z,971.76
2022-11-12T10:49:08.644Z,971.76
2022-11-12T10:51:08.686Z,971.73
2022-11-12T10:52:08.656Z,971.71
2022-11-12T10:53:08.675Z,971.72
2022-11-12T10:55:08.565Z,971.72
2022-11-12T10:56:08.595Z,971.7
2022-11-12T10:57:09.160Z,971.7
2022-11-12T10:58:11.159Z,971.68
2022-11-12T10:59:14.217Z,971.69
2022-11-12T11:00:17.255Z,971.68
2022-11-12T11:01:19.277Z,971.68
2022-11-12T11:02:22.183Z,971.68
2022-11-12T11:03:24.163Z,971.65
2022-11-12T11:04:26.233Z,971.67
2022-11-12T11:05:28.153Z,971.63
2022-11-12T11:06:30.171Z,971.68
2022-11-12T11:07:32.167Z,971.66
2022-11-12T11:08:36.116Z,971.67
2022-11-12T11:09:36.158Z,971.66
2022-11-12T11:10:38.163Z,971.69
2022-11-12T11:11:40.190Z,971.69
2022-11-12T11:12:42.211Z,971.7
2022-11-12T11:13:44.171Z,971.67
2022-11-12T11:14:46.202Z,971.64
2022-11-12T11:15:48.173Z,971.66
2022-11-12T11:16:50.175Z,971.61
2022-11-12T11:17:52.166Z,971.67
2022-11-12T11:18:55.203Z,971.62
2022-11-12T11:19:57.181Z,971.63
2022-11-12T11:20:59.169Z,971.61
2022-11-12T11:22:01.242Z,971.59
2022-11-12T11:23:03.168Z,971.59
2022-11-12T11:24:06.207Z,971.56
2022-11-12T11:25:08.176Z,971.58
2022-11-12T11:26:10.179Z,971.55
2022-11-12T11:27:12.179Z,971.57
2022-11-12T11:28:14.220Z,971.58
2022-11-12T11:29:18.174Z,971.59
2022-11-12T11:30:20.183Z,971.58
2022-11-12T11:31:22.198Z,971.58
2022-11-12T11:32:24.187Z,971.54
2022-11-12T11:33:27.184Z,971.54
2022-11-12T11:34:29.185Z,971.55
2022-11-12T11:35:31.178Z,971.52
2022-11-12T11:36:34.180Z,971.5
2022-11-12T11:38:08.726Z,971.52
2022-11-12T11:39:08.727Z,971.5
2022-11-12T11:40:08.688Z,971.48
2022-11-12T11:41:08.692Z,971.48
2022-11-12T11:42:08.689Z,971.48
2022-11-12T11:43:08.698Z,971.47
2022-11-12T11:44:11.264Z,971.45
2022-11-12T11:45:08.690Z,971.46
2022-11-12T11:46:08.696Z,971.43
2022-11-12T11:47:08.692Z,971.38
2022-11-12T11:48:08.697Z,971.34
2022-11-12T11:49:08.753Z,971.34
2022-11-12T11:50:08.706Z,971.39
2022-11-12T11:51:08.698Z,971.36
2022-11-12T11:52:08.697Z,971.36
2022-11-12T11:53:08.739Z,971.34
2022-11-12T11:54:08.745Z,971.33
2022-11-12T11:55:10.205Z,971.32
2022-11-12T11:56:12.194Z,971.29
2022-11-12T11:57:14.254Z,971.25
2022-11-12T11:58:17.205Z,971.21
2022-11-12T11:59:19.202Z,971.22
2022-11-12T12:00:21.222Z,971.22
2022-11-12T12:01:23.242Z,971.22
2022-11-12T12:02:25.245Z,971.2
2022-11-12T12:03:31.751Z,971.2
2022-11-12T12:04:29.207Z,971.16
2022-11-12T12:05:31.230Z,971.19
2022-11-12T12:06:33.208Z,971.17
2022-11-12T12:07:35.249Z,971.18
2022-11-12T12:08:37.210Z,971.2
2022-11-12T12:09:39.226Z,971.19
2022-11-12T12:11:06.252Z,971.18
2022-11-12T12:11:43.243Z,971.17
2022-11-12T12:12:45.250Z,971.19
2022-11-12T12:13:47.211Z,971.14
2022-11-12T12:14:49.209Z,971.16
2022-11-12T12:15:51.215Z,971.12
2022-11-12T12:16:53.220Z,971.13
2022-11-12T12:17:55.246Z,971.1
2022-11-12T12:18:57.210Z,971.11
2022-11-12T12:19:59.223Z,971.09
2022-11-12T12:21:01.217Z,971.09
2022-11-12T12:22:03.232Z,971.12
2022-11-12T12:23:05.229Z,971.12
2022-11-12T12:24:08.255Z,971.09
2022-11-12T12:25:10.273Z,971.06
2022-11-12T12:26:12.214Z,971.05
2022-11-12T12:27:14.243Z,971.03
2022-11-12T12:28:18.255Z,971.06
2022-11-12T12:29:20.224Z,971.05
2022-11-12T12:30:22.220Z,971.08
2022-11-12T12:31:24.228Z,971.04
2022-11-12T12:32:26.246Z,971.02
2022-11-12T12:33:28.244Z,971
2022-11-12T12:34:30.219Z,970.96
2022-11-12T12:35:32.221Z,970.94
2022-11-12T12:36:34.220Z,970.9
2022-11-12T12:37:36.226Z,970.87
2022-11-12T12:38:38.242Z,970.87
2022-11-12T12:39:44.953Z,970.84
2022-11-12T12:40:42.228Z,970.82
2022-11-12T12:41:44.235Z,970.81
2022-11-12T12:42:46.230Z,970.79
2022-11-12T12:43:48.280Z,970.78
2022-11-12T12:44:50.248Z,970.8
2022-11-12T12:45:52.238Z,970.77
2022-11-12T12:46:55.234Z,970.78
2022-11-12T12:47:57.270Z,970.8
2022-11-12T12:48:59.252Z,970.77
2022-11-12T12:50:02.240Z,970.79
2022-11-12T12:51:04.251Z,970.79
2022-11-12T12:52:06.241Z,970.78
2022-11-12T12:53:08.248Z,970.78
2022-11-12T12:54:10.240Z,970.73
2022-11-12T12:55:12.252Z,970.74
2022-11-12T12:56:14.266Z,970.71
2022-11-12T12:57:17.242Z,970.7
2022-11-12T12:58:19.254Z,970.7
2022-11-12T12:59:21.247Z,970.69
2022-11-12T13:00:23.249Z,970.66
2022-11-12T13:01:25.284Z,970.66
2022-11-12T13:02:27.254Z,970.65
2022-11-12T13:03:29.279Z,970.64
2022-11-12T13:04:31.263Z,970.65
2022-11-12T13:05:33.253Z,970.65
2022-11-12T13:06:35.347Z,970.66
2022-11-12T13:07:37.266Z,970.63
2022-11-12T13:08:39.249Z,970.64
2022-11-12T13:09:41.251Z,970.63
2022-11-12T13:10:43.261Z,970.64
2022-11-12T13:11:45.327Z,970.62
2022-11-12T13:12:48.256Z,970.63
2022-11-12T13:14:03.641Z,970.65
2022-11-12T13:14:53.270Z,970.65
2022-11-12T13:15:55.258Z,970.62
2022-11-12T13:16:57.302Z,970.64
2022-11-12T13:17:59.302Z,970.59
2022-11-12T13:19:02.299Z,970.58
2022-11-12T13:20:04.286Z,970.56
2022-11-12T13:21:06.254Z,970.56
2022-11-12T13:22:08.348Z,970.55
2022-11-12T13:23:10.273Z,970.57
2022-11-12T13:24:12.264Z,970.56
2022-11-12T13:25:14.292Z,970.55
2022-11-12T13:26:18.267Z,970.53
2022-11-12T13:27:20.294Z,970.49
2022-11-12T13:28:22.265Z,970.49
2022-11-12T13:29:24.264Z,970.49
2022-11-12T13:30:26.263Z,970.49
2022-11-12T13:31:28.277Z,970.46
2022-11-12T13:32:30.405Z,970.51
2022-11-12T13:33:32.308Z,970.53
2022-11-12T13:34:34.268Z,970.56
2022-11-12T13:35:36.276Z,970.57
2022-11-12T13:36:38.271Z,970.6
2022-11-12T13:37:40.313Z,970.6
2022-11-12T13:38:42.268Z,970.59
2022-11-12T13:39:44.274Z,970.59
2022-11-12T13:40:46.282Z,970.58
2022-11-12T13:41:48.290Z,970.57
2022-11-12T13:42:50.334Z,970.54
2022-11-12T13:43:52.279Z,970.54
2022-11-12T13:44:56.251Z,970.54
2022-11-12T13:45:56.278Z,970.54
2022-11-12T13:46:58.287Z,970.53
2022-11-12T13:48:00.323Z,970.5
2022-11-12T13:49:02.337Z,970.49
2022-11-12T13:50:04.302Z,970.52
2022-11-12T13:51:07.287Z,970.51